sensor_id;sensor_type;location;lat;lon;timestamp;P1;durP1;ratioP1;P2;durP2;ratioP2
4726;SDS011;2377;51.734;8.950;2023-11-21T00:00:45;19.37;;;7.83;;
4726;SDS011;2377;51.734;8.950;2023-11-21T00:03:12;13.40;;;7.40;;
4726;SDS011;2377;51.734;8.950;2023-11-21T00:05:40;13.73;;;7.83;;
4726;SDS011;2377;51.734;8.950;2023-11-21T00:08:07;12.93;;;8.20;;
4726;SDS011;2377;51.734;8.950;2023-11-21T00:10:35;16.13;;;8.43;;
4726;SDS011;2377;51.734;8.950;2023-11-21T00:13:03;12.60;;;8.40;;
4726;SDS011;2377;51.734;8.950;2023-11-21T00:15:31;15.80;;;8.20;;
4726;SDS011;2377;51.734;8.950;2023-11-21T00:17:59;22.27;;;10.40;;
4726;SDS011;2377;51.734;8.950;2023-11-21T00:20:27;13.53;;;8.23;;
4726;SDS011;2377;51.734;8.950;2023-11-21T00:22:55;15.00;;;8.37;;
4726;SDS011;2377;51.734;8.950;2023-11-21T00:25:22;13.40;;;8.20;;
4726;SDS011;2377;51.734;8.950;2023-11-21T00:27:50;13.53;;;7.87;;
4726;SDS011;2377;51.734;8.950;2023-11-21T00:30:19;18.47;;;9.20;;
4726;SDS011;2377;51.734;8.950;2023-11-21T00:32:47;13.90;;;8.23;;
4726;SDS011;2377;51.734;8.950;2023-11-21T00:35:16;13.30;;;7.83;;
4726;SDS011;2377;51.734;8.950;2023-11-21T00:37:43;12.87;;;7.03;;
4726;SDS011;2377;51.734;8.950;2023-11-21T00:40:10;15.60;;;8.07;;
4726;SDS011;2377;51.734;8.950;2023-11-21T00:42:40;12.60;;;7.03;;
4726;SDS011;2377;51.734;8.950;2023-11-21T00:45:08;12.90;;;8.83;;
4726;SDS011;2377;51.734;8.950;2023-11-21T00:47:38;16.60;;;8.00;;
4726;SDS011;2377;51.734;8.950;2023-11-21T00:50:06;9.30;;;6.13;;
4726;SDS011;2377;51.734;8.950;2023-11-21T00:52:36;11.27;;;7.40;;
4726;SDS011;2377;51.734;8.950;2023-11-21T00:55:05;13.40;;;7.83;;
4726;SDS011;2377;51.734;8.950;2023-11-21T00:57:35;7.90;;;6.10;;
4726;SDS011;2377;51.734;8.950;2023-11-21T01:00:03;16.63;;;7.67;;
4726;SDS011;2377;51.734;8.950;2023-11-21T01:02:33;11.70;;;7.10;;
4726;SDS011;2377;51.734;8.950;2023-11-21T01:05:01;17.10;;;7.20;;
4726;SDS011;2377;51.734;8.950;2023-11-21T01:07:29;8.00;;;5.93;;
4726;SDS011;2377;51.734;8.950;2023-11-21T01:09:58;11.17;;;6.70;;
4726;SDS011;2377;51.734;8.950;2023-11-21T01:12:25;11.23;;;6.57;;
4726;SDS011;2377;51.734;8.950;2023-11-21T01:14:52;16.60;;;7.10;;
4726;SDS011;2377;51.734;8.950;2023-11-21T01:17:19;15.83;;;8.13;;
4726;SDS011;2377;51.734;8.950;2023-11-21T01:19:49;12.90;;;8.13;;
4726;SDS011;2377;51.734;8.950;2023-11-21T01:22:16;12.67;;;7.20;;
4726;SDS011;2377;51.734;8.950;2023-11-21T01:24:47;12.03;;;6.90;;
4726;SDS011;2377;51.734;8.950;2023-11-21T01:27:15;7.80;;;6.73;;
4726;SDS011;2377;51.734;8.950;2023-11-21T01:29:46;12.37;;;7.07;;
4726;SDS011;2377;51.734;8.950;2023-11-21T01:32:13;12.10;;;7.57;;
4726;SDS011;2377;51.734;8.950;2023-11-21T01:34:40;23.07;;;8.90;;
4726;SDS011;2377;51.734;8.950;2023-11-21T01:37:07;19.00;;;7.77;;
4726;SDS011;2377;51.734;8.950;2023-11-21T01:39:37;13.90;;;7.97;;
4726;SDS011;2377;51.734;8.950;2023-11-21T01:42:06;12.97;;;6.97;;
4726;SDS011;2377;51.734;8.950;2023-11-21T01:44:35;10.83;;;7.93;;
4726;SDS011;2377;51.734;8.950;2023-11-21T01:47:03;22.37;;;8.17;;
4726;SDS011;2377;51.734;8.950;2023-11-21T01:49:31;11.33;;;7.80;;
4726;SDS011;2377;51.734;8.950;2023-11-21T01:52:00;22.60;;;10.10;;
4726;SDS011;2377;51.734;8.950;2023-11-21T01:54:32;14.50;;;7.83;;
4726;SDS011;2377;51.734;8.950;2023-11-21T01:57:02;18.57;;;8.67;;
4726;SDS011;2377;51.734;8.950;2023-11-21T01:59:35;18.60;;;9.77;;
4726;SDS011;2377;51.734;8.950;2023-11-21T02:02:05;13.47;;;7.70;;
4726;SDS011;2377;51.734;8.950;2023-11-21T02:04:34;24.73;;;10.50;;
4726;SDS011;2377;51.734;8.950;2023-11-21T02:07:04;27.00;;;8.80;;
4726;SDS011;2377;51.734;8.950;2023-11-21T02:09:40;14.23;;;8.33;;
4726;SDS011;2377;51.734;8.950;2023-11-21T02:12:08;14.30;;;8.67;;
4726;SDS011;2377;51.734;8.950;2023-11-21T02:14:37;12.77;;;7.50;;
4726;SDS011;2377;51.734;8.950;2023-11-21T02:17:04;13.63;;;8.20;;
4726;SDS011;2377;51.734;8.950;2023-11-21T02:19:32;12.40;;;7.03;;
4726;SDS011;2377;51.734;8.950;2023-11-21T02:22:00;10.23;;;7.30;;
4726;SDS011;2377;51.734;8.950;2023-11-21T02:24:32;14.00;;;6.73;;
4726;SDS011;2377;51.734;8.950;2023-11-21T02:27:03;11.97;;;7.60;;
4726;SDS011;2377;51.734;8.950;2023-11-21T02:29:31;22.77;;;8.60;;
4726;SDS011;2377;51.734;8.950;2023-11-21T02:31:58;13.37;;;7.20;;
4726;SDS011;2377;51.734;8.950;2023-11-21T02:34:25;14.20;;;8.07;;
4726;SDS011;2377;51.734;8.950;2023-11-21T02:36:52;20.80;;;9.67;;
4726;SDS011;2377;51.734;8.950;2023-11-21T02:39:22;18.63;;;10.10;;
4726;SDS011;2377;51.734;8.950;2023-11-21T02:41:57;21.97;;;9.63;;
4726;SDS011;2377;51.734;8.950;2023-11-21T02:44:24;20.93;;;9.97;;
4726;SDS011;2377;51.734;8.950;2023-11-21T02:46:55;17.37;;;8.87;;
4726;SDS011;2377;51.734;8.950;2023-11-21T02:49:23;14.40;;;8.17;;
4726;SDS011;2377;51.734;8.950;2023-11-21T02:51:53;14.33;;;9.67;;
4726;SDS011;2377;51.734;8.950;2023-11-21T02:54:20;16.67;;;8.83;;
4726;SDS011;2377;51.734;8.950;2023-11-21T02:56:48;15.17;;;8.47;;
4726;SDS011;2377;51.734;8.950;2023-11-21T02:59:17;18.80;;;8.80;;
4726;SDS011;2377;51.734;8.950;2023-11-21T03:01:44;12.37;;;8.20;;
4726;SDS011;2377;51.734;8.950;2023-11-21T03:04:12;17.73;;;9.57;;
4726;SDS011;2377;51.734;8.950;2023-11-21T03:06:42;13.00;;;8.43;;
4726;SDS011;2377;51.734;8.950;2023-11-21T03:09:10;16.47;;;9.70;;
4726;SDS011;2377;51.734;8.950;2023-11-21T03:11:39;16.60;;;8.57;;
4726;SDS011;2377;51.734;8.950;2023-11-21T03:14:06;25.17;;;9.37;;
4726;SDS011;2377;51.734;8.950;2023-11-21T03:16:35;19.57;;;10.50;;
4726;SDS011;2377;51.734;8.950;2023-11-21T03:19:03;13.67;;;9.37;;
4726;SDS011;2377;51.734;8.950;2023-11-21T03:21:31;13.80;;;8.37;;
4726;SDS011;2377;51.734;8.950;2023-11-21T03:24:01;19.70;;;9.10;;
4726;SDS011;2377;51.734;8.950;2023-11-21T03:26:29;48.53;;;17.00;;
4726;SDS011;2377;51.734;8.950;2023-11-21T03:28:56;32.20;;;14.50;;
4726;SDS011;2377;51.734;8.950;2023-11-21T03:31:23;49.50;;;17.67;;
4726;SDS011;2377;51.734;8.950;2023-11-21T03:33:51;35.87;;;16.47;;
4726;SDS011;2377;51.734;8.950;2023-11-21T03:36:19;53.37;;;18.23;;
4726;SDS011;2377;51.734;8.950;2023-11-21T03:38:47;53.97;;;20.27;;
4726;SDS011;2377;51.734;8.950;2023-11-21T03:41:16;58.43;;;20.37;;
4726;SDS011;2377;51.734;8.950;2023-11-21T03:43:43;46.40;;;19.90;;
4726;SDS011;2377;51.734;8.950;2023-11-21T03:46:10;69.13;;;21.80;;
4726;SDS011;2377;51.734;8.950;2023-11-21T03:48:38;77.37;;;27.17;;
4726;SDS011;2377;51.734;8.950;2023-11-21T03:51:08;80.47;;;26.97;;
4726;SDS011;2377;51.734;8.950;2023-11-21T03:53:35;55.53;;;22.60;;
4726;SDS011;2377;51.734;8.950;2023-11-21T03:56:03;64.00;;;24.70;;
4726;SDS011;2377;51.734;8.950;2023-11-21T03:58:31;64.97;;;25.47;;
4726;SDS011;2377;51.734;8.950;2023-11-21T04:00:59;38.93;;;22.10;;
4726;SDS011;2377;51.734;8.950;2023-11-21T04:03:26;36.57;;;21.90;;
4726;SDS011;2377;51.734;8.950;2023-11-21T04:05:53;52.53;;;24.00;;
4726;SDS011;2377;51.734;8.950;2023-11-21T04:08:22;46.70;;;23.87;;
4726;SDS011;2377;51.734;8.950;2023-11-21T04:10:51;56.93;;;25.60;;
4726;SDS011;2377;51.734;8.950;2023-11-21T04:13:21;38.40;;;21.40;;
4726;SDS011;2377;51.734;8.950;2023-11-21T04:15:48;48.43;;;23.50;;
4726;SDS011;2377;51.734;8.950;2023-11-21T04:18:16;40.67;;;22.37;;
4726;SDS011;2377;51.734;8.950;2023-11-21T04:20:43;44.13;;;21.50;;
4726;SDS011;2377;51.734;8.950;2023-11-21T04:23:10;40.40;;;21.30;;
4726;SDS011;2377;51.734;8.950;2023-11-21T04:25:40;43.90;;;21.30;;
4726;SDS011;2377;51.734;8.950;2023-11-21T04:28:07;49.83;;;21.77;;
4726;SDS011;2377;51.734;8.950;2023-11-21T04:30:34;45.23;;;19.23;;
4726;SDS011;2377;51.734;8.950;2023-11-21T04:33:01;50.33;;;20.60;;
4726;SDS011;2377;51.734;8.950;2023-11-21T04:35:29;39.53;;;19.43;;
4726;SDS011;2377;51.734;8.950;2023-11-21T04:37:56;36.30;;;18.33;;
4726;SDS011;2377;51.734;8.950;2023-11-21T04:40:23;54.13;;;21.60;;
4726;SDS011;2377;51.734;8.950;2023-11-21T04:42:53;35.53;;;17.53;;
4726;SDS011;2377;51.734;8.950;2023-11-21T04:45:22;33.77;;;17.37;;
4726;SDS011;2377;51.734;8.950;2023-11-21T04:47:49;30.60;;;17.10;;
4726;SDS011;2377;51.734;8.950;2023-11-21T04:50:17;32.17;;;16.90;;
4726;SDS011;2377;51.734;8.950;2023-11-21T04:52:45;35.30;;;18.03;;
4726;SDS011;2377;51.734;8.950;2023-11-21T04:55:12;43.07;;;21.20;;
4726;SDS011;2377;51.734;8.950;2023-11-21T04:57:40;38.57;;;19.57;;
4726;SDS011;2377;51.734;8.950;2023-11-21T05:00:10;37.53;;;18.07;;
4726;SDS011;2377;51.734;8.950;2023-11-21T05:02:39;45.07;;;21.10;;
4726;SDS011;2377;51.734;8.950;2023-11-21T05:05:09;46.33;;;19.77;;
4726;SDS011;2377;51.734;8.950;2023-11-21T05:07:36;34.37;;;18.17;;
4726;SDS011;2377;51.734;8.950;2023-11-21T05:10:04;39.40;;;18.87;;
4726;SDS011;2377;51.734;8.950;2023-11-21T05:12:36;29.93;;;16.53;;
4726;SDS011;2377;51.734;8.950;2023-11-21T05:15:04;31.67;;;17.20;;
4726;SDS011;2377;51.734;8.950;2023-11-21T05:17:39;37.60;;;15.50;;
4726;SDS011;2377;51.734;8.950;2023-11-21T05:20:09;26.80;;;14.00;;
4726;SDS011;2377;51.734;8.950;2023-11-21T05:22:39;31.60;;;15.90;;
4726;SDS011;2377;51.734;8.950;2023-11-21T05:25:07;23.77;;;14.20;;
4726;SDS011;2377;51.734;8.950;2023-11-21T05:27:35;28.03;;;14.10;;
4726;SDS011;2377;51.734;8.950;2023-11-21T05:30:03;30.00;;;16.20;;
4726;SDS011;2377;51.734;8.950;2023-11-21T05:32:39;28.40;;;15.90;;
4726;SDS011;2377;51.734;8.950;2023-11-21T05:35:08;27.50;;;15.27;;
4726;SDS011;2377;51.734;8.950;2023-11-21T05:37:40;28.00;;;14.63;;
4726;SDS011;2377;51.734;8.950;2023-11-21T05:40:08;25.37;;;14.13;;
4726;SDS011;2377;51.734;8.950;2023-11-21T05:42:36;19.73;;;12.43;;
4726;SDS011;2377;51.734;8.950;2023-11-21T05:45:04;39.43;;;16.67;;
4726;SDS011;2377;51.734;8.950;2023-11-21T05:47:36;34.87;;;15.57;;
4726;SDS011;2377;51.734;8.950;2023-11-21T05:50:06;28.50;;;15.03;;
4726;SDS011;2377;51.734;8.950;2023-11-21T05:52:39;36.57;;;15.87;;
4726;SDS011;2377;51.734;8.950;2023-11-21T05:55:08;30.83;;;15.60;;
4726;SDS011;2377;51.734;8.950;2023-11-21T05:57:40;39.63;;;17.93;;
4726;SDS011;2377;51.734;8.950;2023-11-21T06:00:10;38.40;;;17.53;;
4726;SDS011;2377;51.734;8.950;2023-11-21T06:02:45;37.90;;;17.13;;
4726;SDS011;2377;51.734;8.950;2023-11-21T06:05:18;39.10;;;17.00;;
4726;SDS011;2377;51.734;8.950;2023-11-21T06:07:49;45.90;;;18.00;;
4726;SDS011;2377;51.734;8.950;2023-11-21T06:10:19;32.73;;;15.90;;
4726;SDS011;2377;51.734;8.950;2023-11-21T06:12:49;36.60;;;17.60;;
4726;SDS011;2377;51.734;8.950;2023-11-21T06:15:16;31.83;;;16.67;;
4726;SDS011;2377;51.734;8.950;2023-11-21T06:17:48;34.27;;;17.57;;
4726;SDS011;2377;51.734;8.950;2023-11-21T06:20:19;34.43;;;17.33;;
4726;SDS011;2377;51.734;8.950;2023-11-21T06:22:46;45.43;;;19.03;;
4726;SDS011;2377;51.734;8.950;2023-11-21T06:25:15;50.20;;;18.37;;
4726;SDS011;2377;51.734;8.950;2023-11-21T06:27:44;42.13;;;19.50;;
4726;SDS011;2377;51.734;8.950;2023-11-21T06:30:13;50.53;;;20.53;;
4726;SDS011;2377;51.734;8.950;2023-11-21T06:32:45;56.97;;;22.43;;
4726;SDS011;2377;51.734;8.950;2023-11-21T06:35:12;48.27;;;19.97;;
4726;SDS011;2377;51.734;8.950;2023-11-21T06:37:44;53.00;;;21.10;;
4726;SDS011;2377;51.734;8.950;2023-11-21T06:40:13;43.63;;;22.77;;
4726;SDS011;2377;51.734;8.950;2023-11-21T06:42:41;51.80;;;22.90;;
4726;SDS011;2377;51.734;8.950;2023-11-21T06:45:09;43.20;;;19.93;;
4726;SDS011;2377;51.734;8.950;2023-11-21T06:47:40;39.87;;;19.83;;
4726;SDS011;2377;51.734;8.950;2023-11-21T06:50:11;47.60;;;20.93;;
4726;SDS011;2377;51.734;8.950;2023-11-21T06:52:54;42.23;;;20.30;;
4726;SDS011;2377;51.734;8.950;2023-11-21T06:55:22;43.90;;;20.00;;
4726;SDS011;2377;51.734;8.950;2023-11-21T06:57:49;39.73;;;20.10;;
4726;SDS011;2377;51.734;8.950;2023-11-21T07:00:17;43.03;;;20.27;;
4726;SDS011;2377;51.734;8.950;2023-11-21T07:02:44;43.13;;;19.77;;
4726;SDS011;2377;51.734;8.950;2023-11-21T07:05:14;42.53;;;20.10;;
4726;SDS011;2377;51.734;8.950;2023-11-21T07:07:45;66.43;;;22.93;;
4726;SDS011;2377;51.734;8.950;2023-11-21T07:10:18;36.60;;;18.23;;
4726;SDS011;2377;51.734;8.950;2023-11-21T07:12:45;41.20;;;19.10;;
4726;SDS011;2377;51.734;8.950;2023-11-21T07:15:12;44.97;;;18.70;;
4726;SDS011;2377;51.734;8.950;2023-11-21T07:17:39;38.97;;;19.13;;
4726;SDS011;2377;51.734;8.950;2023-11-21T07:20:09;63.27;;;20.03;;
4726;SDS011;2377;51.734;8.950;2023-11-21T07:22:39;55.40;;;22.23;;
4726;SDS011;2377;51.734;8.950;2023-11-21T07:25:08;36.90;;;18.10;;
4726;SDS011;2377;51.734;8.950;2023-11-21T07:27:38;50.23;;;19.70;;
4726;SDS011;2377;51.734;8.950;2023-11-21T07:30:06;48.67;;;20.90;;
4726;SDS011;2377;51.734;8.950;2023-11-21T07:32:38;59.47;;;20.30;;
4726;SDS011;2377;51.734;8.950;2023-11-21T07:35:06;65.40;;;21.77;;
4726;SDS011;2377;51.734;8.950;2023-11-21T07:37:42;45.07;;;20.23;;
4726;SDS011;2377;51.734;8.950;2023-11-21T07:40:13;42.33;;;18.23;;
4726;SDS011;2377;51.734;8.950;2023-11-21T07:42:43;48.60;;;21.30;;
4726;SDS011;2377;51.734;8.950;2023-11-21T07:45:11;36.87;;;19.47;;
4726;SDS011;2377;51.734;8.950;2023-11-21T07:47:38;42.63;;;19.40;;
4726;SDS011;2377;51.734;8.950;2023-11-21T07:50:06;51.43;;;21.73;;
4726;SDS011;2377;51.734;8.950;2023-11-21T07:52:35;64.53;;;23.40;;
4726;SDS011;2377;51.734;8.950;2023-11-21T07:55:03;47.70;;;21.70;;
4726;SDS011;2377;51.734;8.950;2023-11-21T07:57:32;49.13;;;22.63;;
4726;SDS011;2377;51.734;8.950;2023-11-21T08:00:01;44.70;;;22.70;;
4726;SDS011;2377;51.734;8.950;2023-11-21T08:02:31;67.87;;;26.90;;
4726;SDS011;2377;51.734;8.950;2023-11-21T08:04:59;49.43;;;24.67;;
4726;SDS011;2377;51.734;8.950;2023-11-21T08:07:27;53.83;;;24.07;;
4726;SDS011;2377;51.734;8.950;2023-11-21T08:09:54;55.83;;;24.30;;
4726;SDS011;2377;51.734;8.950;2023-11-21T08:12:21;39.73;;;22.23;;
4726;SDS011;2377;51.734;8.950;2023-11-21T08:14:49;97.63;;;28.23;;
4726;SDS011;2377;51.734;8.950;2023-11-21T08:17:17;42.47;;;22.43;;
4726;SDS011;2377;51.734;8.950;2023-11-21T08:19:48;44.03;;;22.17;;
4726;SDS011;2377;51.734;8.950;2023-11-21T08:22:16;46.37;;;24.00;;
4726;SDS011;2377;51.734;8.950;2023-11-21T08:24:44;41.87;;;21.07;;
4726;SDS011;2377;51.734;8.950;2023-11-21T08:27:12;41.00;;;20.80;;
4726;SDS011;2377;51.734;8.950;2023-11-21T08:29:42;30.70;;;17.20;;
4726;SDS011;2377;51.734;8.950;2023-11-21T08:32:10;47.27;;;21.00;;
4726;SDS011;2377;51.734;8.950;2023-11-21T08:34:38;23.60;;;15.77;;
4726;SDS011;2377;51.734;8.950;2023-11-21T08:37:08;30.67;;;18.30;;
4726;SDS011;2377;51.734;8.950;2023-11-21T08:39:36;20.50;;;13.73;;
4726;SDS011;2377;51.734;8.950;2023-11-21T08:42:03;23.60;;;12.13;;
4726;SDS011;2377;51.734;8.950;2023-11-21T08:44:31;17.43;;;11.57;;
4726;SDS011;2377;51.734;8.950;2023-11-21T08:46:58;16.03;;;12.73;;
4726;SDS011;2377;51.734;8.950;2023-11-21T08:49:25;22.03;;;12.50;;
4726;SDS011;2377;51.734;8.950;2023-11-21T08:51:56;18.53;;;11.70;;
4726;SDS011;2377;51.734;8.950;2023-11-21T08:54:24;14.90;;;9.73;;
4726;SDS011;2377;51.734;8.950;2023-11-21T08:56:52;20.57;;;11.57;;
4726;SDS011;2377;51.734;8.950;2023-11-21T08:59:20;13.47;;;9.10;;
4726;SDS011;2377;51.734;8.950;2023-11-21T09:01:47;9.20;;;7.87;;
4726;SDS011;2377;51.734;8.950;2023-11-21T09:04:15;10.57;;;7.93;;
4726;SDS011;2377;51.734;8.950;2023-11-21T09:06:42;10.37;;;8.50;;
4726;SDS011;2377;51.734;8.950;2023-11-21T09:09:11;9.93;;;8.70;;
4726;SDS011;2377;51.734;8.950;2023-11-21T09:11:39;10.60;;;8.70;;
4726;SDS011;2377;51.734;8.950;2023-11-21T09:14:10;10.20;;;7.80;;
4726;SDS011;2377;51.734;8.950;2023-11-21T09:16:44;8.33;;;6.30;;
4726;SDS011;2377;51.734;8.950;2023-11-21T09:19:12;7.03;;;6.33;;
4726;SDS011;2377;51.734;8.950;2023-11-21T09:21:41;9.87;;;7.67;;
4726;SDS011;2377;51.734;8.950;2023-11-21T09:24:08;10.47;;;7.50;;
4726;SDS011;2377;51.734;8.950;2023-11-21T09:26:38;8.27;;;6.17;;
4726;SDS011;2377;51.734;8.950;2023-11-21T09:29:06;8.20;;;7.10;;
4726;SDS011;2377;51.734;8.950;2023-11-21T09:31:36;9.10;;;7.57;;
4726;SDS011;2377;51.734;8.950;2023-11-21T09:34:03;8.07;;;6.87;;
4726;SDS011;2377;51.734;8.950;2023-11-21T09:36:32;16.33;;;8.10;;
4726;SDS011;2377;51.734;8.950;2023-11-21T09:39:00;15.80;;;11.40;;
4726;SDS011;2377;51.734;8.950;2023-11-21T09:41:32;20.00;;;14.00;;
4726;SDS011;2377;51.734;8.950;2023-11-21T09:44:14;11.93;;;10.43;;
4726;SDS011;2377;51.734;8.950;2023-11-21T09:46:48;12.13;;;10.83;;
4726;SDS011;2377;51.734;8.950;2023-11-21T09:49:20;11.53;;;10.23;;
4726;SDS011;2377;51.734;8.950;2023-11-21T09:51:51;15.87;;;11.00;;
4726;SDS011;2377;51.734;8.950;2023-11-21T09:54:27;12.63;;;11.40;;
4726;SDS011;2377;51.734;8.950;2023-11-21T09:56:59;14.83;;;13.23;;
4726;SDS011;2377;51.734;8.950;2023-11-21T09:59:27;13.67;;;10.90;;
4726;SDS011;2377;51.734;8.950;2023-11-21T10:01:58;13.03;;;11.73;;
4726;SDS011;2377;51.734;8.950;2023-11-21T10:04:27;18.07;;;14.73;;
4726;SDS011;2377;51.734;8.950;2023-11-21T10:06:55;15.93;;;11.97;;
4726;SDS011;2377;51.734;8.950;2023-11-21T10:09:23;17.50;;;13.63;;
4726;SDS011;2377;51.734;8.950;2023-11-21T10:11:52;15.50;;;14.00;;
4726;SDS011;2377;51.734;8.950;2023-11-21T10:14:23;20.53;;;15.27;;
4726;SDS011;2377;51.734;8.950;2023-11-21T10:16:54;19.53;;;14.63;;
4726;SDS011;2377;51.734;8.950;2023-11-21T10:19:23;33.40;;;24.03;;
4726;SDS011;2377;51.734;8.950;2023-11-21T10:21:52;14.70;;;13.13;;
4726;SDS011;2377;51.734;8.950;2023-11-21T10:24:21;49.77;;;23.23;;
4726;SDS011;2377;51.734;8.950;2023-11-21T10:26:48;31.77;;;18.90;;
4726;SDS011;2377;51.734;8.950;2023-11-21T10:29:17;22.60;;;18.10;;
4726;SDS011;2377;51.734;8.950;2023-11-21T10:31:50;23.73;;;20.37;;
4726;SDS011;2377;51.734;8.950;2023-11-21T10:34:20;22.40;;;20.00;;
4726;SDS011;2377;51.734;8.950;2023-11-21T10:36:53;26.60;;;22.83;;
4726;SDS011;2377;51.734;8.950;2023-11-21T10:39:23;30.53;;;23.73;;
4726;SDS011;2377;51.734;8.950;2023-11-21T10:41:54;19.27;;;15.30;;
4726;SDS011;2377;51.734;8.950;2023-11-21T10:44:21;24.40;;;21.80;;
4726;SDS011;2377;51.734;8.950;2023-11-21T10:46:51;17.27;;;14.90;;
4726;SDS011;2377;51.734;8.950;2023-11-21T10:49:22;20.53;;;18.00;;
4726;SDS011;2377;51.734;8.950;2023-11-21T10:51:53;13.40;;;12.00;;
4726;SDS011;2377;51.734;8.950;2023-11-21T10:54:21;14.10;;;12.63;;
4726;SDS011;2377;51.734;8.950;2023-11-21T10:56:50;15.30;;;11.80;;
4726;SDS011;2377;51.734;8.950;2023-11-21T10:59:25;26.50;;;22.00;;
4726;SDS011;2377;51.734;8.950;2023-11-21T11:01:58;17.33;;;15.63;;
4726;SDS011;2377;51.734;8.950;2023-11-21T11:04:28;24.30;;;21.23;;
4726;SDS011;2377;51.734;8.950;2023-11-21T11:06:57;15.10;;;13.50;;
4726;SDS011;2377;51.734;8.950;2023-11-21T11:09:28;18.40;;;13.50;;
4726;SDS011;2377;51.734;8.950;2023-11-21T11:12:01;12.60;;;9.87;;
4726;SDS011;2377;51.734;8.950;2023-11-21T11:14:31;13.47;;;10.07;;
4726;SDS011;2377;51.734;8.950;2023-11-21T11:17:00;11.30;;;9.30;;
4726;SDS011;2377;51.734;8.950;2023-11-21T11:19:33;12.30;;;10.33;;
4726;SDS011;2377;51.734;8.950;2023-11-21T11:22:07;17.30;;;15.53;;
4726;SDS011;2377;51.734;8.950;2023-11-21T11:24:54;7.97;;;6.90;;
4726;SDS011;2377;51.734;8.950;2023-11-21T11:27:48;10.97;;;8.57;;
4726;SDS011;2377;51.734;8.950;2023-11-21T11:30:27;10.27;;;8.00;;
4726;SDS011;2377;51.734;8.950;2023-11-21T11:33:23;11.43;;;7.77;;
4726;SDS011;2377;51.734;8.950;2023-11-21T11:36:04;16.20;;;8.97;;
4726;SDS011;2377;51.734;8.950;2023-11-21T11:38:44;17.43;;;8.57;;
4726;SDS011;2377;51.734;8.950;2023-11-21T11:41:15;28.07;;;12.90;;
4726;SDS011;2377;51.734;8.950;2023-11-21T11:44:12;19.50;;;8.90;;
4726;SDS011;2377;51.734;8.950;2023-11-21T11:47:23;78.00;;;9.97;;
4726;SDS011;2377;51.734;8.950;2023-11-21T11:50:02;67.33;;;8.40;;
4726;SDS011;2377;51.734;8.950;2023-11-21T11:52:40;182.40;;;14.10;;
4726;SDS011;2377;51.734;8.950;2023-11-21T11:55:09;118.03;;;9.93;;
4726;SDS011;2377;51.734;8.950;2023-11-21T11:57:38;25.83;;;8.30;;
4726;SDS011;2377;51.734;8.950;2023-11-21T12:00:14;5.37;;;4.50;;
4726;SDS011;2377;51.734;8.950;2023-11-21T12:02:47;25.87;;;6.73;;
4726;SDS011;2377;51.734;8.950;2023-11-21T12:05:20;150.83;;;8.70;;
4726;SDS011;2377;51.734;8.950;2023-11-21T12:07:49;120.10;;;12.50;;
4726;SDS011;2377;51.734;8.950;2023-11-21T12:10:20;173.57;;;13.53;;
4726;SDS011;2377;51.734;8.950;2023-11-21T12:12:50;133.27;;;6.17;;
4726;SDS011;2377;51.734;8.950;2023-11-21T12:15:19;302.33;;;19.70;;
4726;SDS011;2377;51.734;8.950;2023-11-21T12:17:47;110.00;;;9.10;;
4726;SDS011;2377;51.734;8.950;2023-11-21T12:20:18;52.87;;;5.00;;
4726;SDS011;2377;51.734;8.950;2023-11-21T12:22:50;42.70;;;5.20;;
4726;SDS011;2377;51.734;8.950;2023-11-21T12:25:19;5.47;;;3.13;;
4726;SDS011;2377;51.734;8.950;2023-11-21T12:27:54;4.60;;;3.60;;
4726;SDS011;2377;51.734;8.950;2023-11-21T12:30:23;6.50;;;5.90;;
4726;SDS011;2377;51.734;8.950;2023-11-21T12:32:56;5.60;;;5.10;;
4726;SDS011;2377;51.734;8.950;2023-11-21T12:35:27;5.07;;;4.67;;
4726;SDS011;2377;51.734;8.950;2023-11-21T12:37:59;9.77;;;7.50;;
4726;SDS011;2377;51.734;8.950;2023-11-21T12:40:29;6.93;;;4.47;;
4726;SDS011;2377;51.734;8.950;2023-11-21T12:42:59;4.73;;;3.97;;
4726;SDS011;2377;51.734;8.950;2023-11-21T12:45:29;5.17;;;4.37;;
4726;SDS011;2377;51.734;8.950;2023-11-21T12:48:00;4.77;;;4.30;;
4726;SDS011;2377;51.734;8.950;2023-11-21T12:50:34;5.57;;;5.00;;
4726;SDS011;2377;51.734;8.950;2023-11-21T12:53:03;4.80;;;4.27;;
4726;SDS011;2377;51.734;8.950;2023-11-21T12:55:35;8.30;;;5.97;;
4726;SDS011;2377;51.734;8.950;2023-11-21T12:58:03;9.93;;;5.87;;
4726;SDS011;2377;51.734;8.950;2023-11-21T13:00:38;6.70;;;4.90;;
4726;SDS011;2377;51.734;8.950;2023-11-21T13:03:09;7.17;;;5.70;;
4726;SDS011;2377;51.734;8.950;2023-11-21T13:05:44;7.10;;;5.33;;
4726;SDS011;2377;51.734;8.950;2023-11-21T13:08:16;8.33;;;6.10;;
4726;SDS011;2377;51.734;8.950;2023-11-21T13:10:48;10.97;;;7.30;;
4726;SDS011;2377;51.734;8.950;2023-11-21T13:13:20;9.70;;;7.00;;
4726;SDS011;2377;51.734;8.950;2023-11-21T13:15:49;10.77;;;7.37;;
4726;SDS011;2377;51.734;8.950;2023-11-21T13:18:20;11.10;;;8.10;;
4726;SDS011;2377;51.734;8.950;2023-11-21T13:20:50;13.20;;;9.57;;
4726;SDS011;2377;51.734;8.950;2023-11-21T13:23:21;13.93;;;9.57;;
4726;SDS011;2377;51.734;8.950;2023-11-21T13:25:50;13.43;;;9.63;;
4726;SDS011;2377;51.734;8.950;2023-11-21T13:28:19;14.00;;;9.33;;
4726;SDS011;2377;51.734;8.950;2023-11-21T13:30:52;12.70;;;9.80;;
4726;SDS011;2377;51.734;8.950;2023-11-21T13:33:22;15.73;;;10.30;;
4726;SDS011;2377;51.734;8.950;2023-11-21T13:35:54;10.87;;;9.17;;
4726;SDS011;2377;51.734;8.950;2023-11-21T13:38:22;15.73;;;9.10;;
4726;SDS011;2377;51.734;8.950;2023-11-21T13:40:50;11.33;;;8.97;;
4726;SDS011;2377;51.734;8.950;2023-11-21T13:43:19;16.40;;;10.93;;
4726;SDS011;2377;51.734;8.950;2023-11-21T13:45:53;16.53;;;11.10;;
4726;SDS011;2377;51.734;8.950;2023-11-21T13:48:26;12.80;;;9.50;;
4726;SDS011;2377;51.734;8.950;2023-11-21T13:51:00;13.90;;;10.33;;
4726;SDS011;2377;51.734;8.950;2023-11-21T13:53:38;15.97;;;10.50;;
4726;SDS011;2377;51.734;8.950;2023-11-21T13:56:07;15.67;;;10.60;;
4726;SDS011;2377;51.734;8.950;2023-11-21T13:58:35;17.40;;;10.50;;
4726;SDS011;2377;51.734;8.950;2023-11-21T14:01:10;15.17;;;11.03;;
4726;SDS011;2377;51.734;8.950;2023-11-21T14:03:54;14.10;;;10.40;;
4726;SDS011;2377;51.734;8.950;2023-11-21T14:06:29;14.83;;;10.50;;
4726;SDS011;2377;51.734;8.950;2023-11-21T14:08:59;12.07;;;9.37;;
4726;SDS011;2377;51.734;8.950;2023-11-21T14:11:30;14.93;;;9.70;;
4726;SDS011;2377;51.734;8.950;2023-11-21T14:13:59;16.30;;;10.30;;
4726;SDS011;2377;51.734;8.950;2023-11-21T14:16:28;10.30;;;8.33;;
4726;SDS011;2377;51.734;8.950;2023-11-21T14:18:56;12.97;;;9.00;;
4726;SDS011;2377;51.734;8.950;2023-11-21T14:21:30;12.80;;;8.90;;
4726;SDS011;2377;51.734;8.950;2023-11-21T14:24:00;11.93;;;8.77;;
4726;SDS011;2377;51.734;8.950;2023-11-21T14:26:28;11.43;;;8.80;;
4726;SDS011;2377;51.734;8.950;2023-11-21T14:28:56;12.90;;;9.63;;
4726;SDS011;2377;51.734;8.950;2023-11-21T14:31:24;12.30;;;9.77;;
4726;SDS011;2377;51.734;8.950;2023-11-21T14:33:55;15.47;;;10.07;;
4726;SDS011;2377;51.734;8.950;2023-11-21T14:36:27;14.47;;;10.00;;
4726;SDS011;2377;51.734;8.950;2023-11-21T14:38:56;17.20;;;10.40;;
4726;SDS011;2377;51.734;8.950;2023-11-21T14:41:25;13.70;;;9.10;;
4726;SDS011;2377;51.734;8.950;2023-11-21T14:43:54;12.50;;;8.93;;
4726;SDS011;2377;51.734;8.950;2023-11-21T14:46:22;10.80;;;8.37;;
4726;SDS011;2377;51.734;8.950;2023-11-21T14:48:50;11.30;;;8.17;;
4726;SDS011;2377;51.734;8.950;2023-11-21T14:51:27;17.67;;;9.07;;
4726;SDS011;2377;51.734;8.950;2023-11-21T14:54:13;11.90;;;8.27;;
4726;SDS011;2377;51.734;8.950;2023-11-21T14:56:48;10.27;;;7.63;;
4726;SDS011;2377;51.734;8.950;2023-11-21T14:59:15;13.70;;;9.13;;
4726;SDS011;2377;51.734;8.950;2023-11-21T15:01:42;11.40;;;8.40;;
4726;SDS011;2377;51.734;8.950;2023-11-21T15:04:18;13.90;;;10.23;;
4726;SDS011;2377;51.734;8.950;2023-11-21T15:06:58;13.63;;;7.90;;
4726;SDS011;2377;51.734;8.950;2023-11-21T15:09:24;11.80;;;9.10;;
4726;SDS011;2377;51.734;8.950;2023-11-21T15:12:04;13.80;;;9.20;;